sensor_id;sensor_type;location;lat;lon;timestamp;temperature;humidity
5061;DHT22;2549;52.128;21.068;2023-05-19T00:01:17;15.90;99.90
5061;DHT22;2549;52.128;21.068;2023-05-19T00:03:52;15.90;99.90
5061;DHT22;2549;52.128;21.068;2023-05-19T00:06:25;15.80;99.90
5061;DHT22;2549;52.128;21.068;2023-05-19T00:08:58;15.90;99.90
5061;DHT22;2549;52.128;21.068;2023-05-19T00:11:26;15.80;99.90
5061;DHT22;2549;52.128;21.068;2023-05-19T00:13:55;15.80;99.90
5061;DHT22;2549;52.128;21.068;2023-05-19T00:16:23;15.80;99.90
5061;DHT22;2549;52.128;21.068;2023-05-19T00:18:51;15.80;99.90
5061;DHT22;2549;52.128;21.068;2023-05-19T00:21:19;15.80;99.90
5061;DHT22;2549;52.128;21.068;2023-05-19T00:23:46;15.80;99.90
5061;DHT22;2549;52.128;21.068;2023-05-19T00:26:14;15.70;99.90
5061;DHT22;2549;52.128;21.068;2023-05-19T00:28:41;15.70;99.90
5061;DHT22;2549;52.128;21.068;2023-05-19T00:31:08;15.60;99.90
5061;DHT22;2549;52.128;21.068;2023-05-19T00:33:35;15.60;99.90
5061;DHT22;2549;52.128;21.068;2023-05-19T00:36:02;15.60;99.90
5061;DHT22;2549;52.128;21.068;2023-05-19T00:38:31;15.60;99.90
5061;DHT22;2549;52.128;21.068;2023-05-19T00:40:59;15.60;99.90
5061;DHT22;2549;52.128;21.068;2023-05-19T00:43:26;15.50;99.90
5061;DHT22;2549;52.128;21.068;2023-05-19T00:45:53;15.50;99.90
5061;DHT22;2549;52.128;21.068;2023-05-19T00:48:20;15.50;99.90
5061;DHT22;2549;52.128;21.068;2023-05-19T00:50:48;15.50;99.90
5061;DHT22;2549;52.128;21.068;2023-05-19T00:53:17;15.50;99.90
5061;DHT22;2549;52.128;21.068;2023-05-19T00:55:45;15.50;99.90
5061;DHT22;2549;52.128;21.068;2023-05-19T00:58:13;15.50;99.90
5061;DHT22;2549;52.128;21.068;2023-05-19T01:00:41;15.50;99.90
5061;DHT22;2549;52.128;21.068;2023-05-19T01:03:09;15.40;99.90
5061;DHT22;2549;52.128;21.068;2023-05-19T01:05:42;15.50;99.90
5061;DHT22;2549;52.128;21.068;2023-05-19T01:08:13;15.40;99.90
5061;DHT22;2549;52.128;21.068;2023-05-19T01:10:40;15.40;99.90
5061;DHT22;2549;52.128;21.068;2023-05-19T01:13:07;15.40;99.90
5061;DHT22;2549;52.128;21.068;2023-05-19T01:15:53;15.30;99.90
5061;DHT22;2549;52.128;21.068;2023-05-19T01:32:10;15.20;99.90
5061;DHT22;2549;52.128;21.068;2023-05-19T01:34:44;15.20;99.90
5061;DHT22;2549;52.128;21.068;2023-05-19T01:37:12;15.20;99.90
5061;DHT22;2549;52.128;21.068;2023-05-19T01:39:43;15.20;99.90
5061;DHT22;2549;52.128;21.068;2023-05-19T01:42:11;15.20;99.90
5061;DHT22;2549;52.128;21.068;2023-05-19T01:44:38;15.20;99.90
5061;DHT22;2549;52.128;21.068;2023-05-19T01:47:06;15.20;99.90
5061;DHT22;2549;52.128;21.068;2023-05-19T01:49:33;15.20;99.90
5061;DHT22;2549;52.128;21.068;2023-05-19T01:52:00;15.10;99.90
5061;DHT22;2549;52.128;21.068;2023-05-19T01:54:27;15.20;99.90
5061;DHT22;2549;52.128;21.068;2023-05-19T01:57:15;15.20;99.90
5061;DHT22;2549;52.128;21.068;2023-05-19T02:00:00;15.20;99.90
5061;DHT22;2549;52.128;21.068;2023-05-19T02:05:05;15.20;99.90
5061;DHT22;2549;52.128;21.068;2023-05-19T02:07:42;15.10;99.90
5061;DHT22;2549;52.128;21.068;2023-05-19T02:10:13;15.10;99.90
5061;DHT22;2549;52.128;21.068;2023-05-19T02:12:42;15.10;99.90
5061;DHT22;2549;52.128;21.068;2023-05-19T02:15:19;15.10;99.90
5061;DHT22;2549;52.128;21.068;2023-05-19T02:17:47;15.10;99.90
5061;DHT22;2549;52.128;21.068;2023-05-19T02:20:17;15.10;99.90
5061;DHT22;2549;52.128;21.068;2023-05-19T02:22:44;15.10;99.90
5061;DHT22;2549;52.128;21.068;2023-05-19T02:25:11;15.10;99.90
5061;DHT22;2549;52.128;21.068;2023-05-19T02:27:38;15.10;99.90
5061;DHT22;2549;52.128;21.068;2023-05-19T02:30:06;15.10;99.90
5061;DHT22;2549;52.128;21.068;2023-05-19T02:32:34;15.10;99.90
5061;DHT22;2549;52.128;21.068;2023-05-19T02:35:02;15.10;99.90
5061;DHT22;2549;52.128;21.068;2023-05-19T02:37:29;15.10;99.90
5061;DHT22;2549;52.128;21.068;2023-05-19T02:39:56;15.20;99.90
5061;DHT22;2549;52.128;21.068;2023-05-19T02:42:23;15.10;99.90
5061;DHT22;2549;52.128;21.068;2023-05-19T02:44:51;15.10;99.90
5061;DHT22;2549;52.128;21.068;2023-05-19T02:47:17;15.10;99.90
5061;DHT22;2549;52.128;21.068;2023-05-19T02:49:44;15.10;99.90
5061;DHT22;2549;52.128;21.068;2023-05-19T02:52:12;15.10;99.90
5061;DHT22;2549;52.128;21.068;2023-05-19T02:54:38;15.10;99.90
5061;DHT22;2549;52.128;21.068;2023-05-19T02:57:05;15.10;99.90
5061;DHT22;2549;52.128;21.068;2023-05-19T02:59:32;15.10;99.90
5061;DHT22;2549;52.128;21.068;2023-05-19T03:02:00;15.10;99.90
5061;DHT22;2549;52.128;21.068;2023-05-19T03:04:28;15.10;99.90
5061;DHT22;2549;52.128;21.068;2023-05-19T03:06:55;15.10;99.90
5061;DHT22;2549;52.128;21.068;2023-05-19T03:09:23;15.10;99.90
5061;DHT22;2549;52.128;21.068;2023-05-19T03:11:50;15.10;99.90
5061;DHT22;2549;52.128;21.068;2023-05-19T03:14:17;15.10;99.90
5061;DHT22;2549;52.128;21.068;2023-05-19T03:16:44;15.10;99.90
5061;DHT22;2549;52.128;21.068;2023-05-19T03:19:11;15.10;99.90
5061;DHT22;2549;52.128;21.068;2023-05-19T03:21:38;15.10;99.90
5061;DHT22;2549;52.128;21.068;2023-05-19T03:24:05;15.10;99.90
5061;DHT22;2549;52.128;21.068;2023-05-19T03:26:32;15.10;99.90
5061;DHT22;2549;52.128;21.068;2023-05-19T03:28:59;15.10;99.90
5061;DHT22;2549;52.128;21.068;2023-05-19T03:31:26;15.10;99.90
5061;DHT22;2549;52.128;21.068;2023-05-19T03:33:53;15.10;99.90
5061;DHT22;2549;52.128;21.068;2023-05-19T03:36:20;15.10;99.90
5061;DHT22;2549;52.128;21.068;2023-05-19T03:38:48;15.00;99.90
5061;DHT22;2549;52.128;21.068;2023-05-19T03:41:14;15.00;99.90
5061;DHT22;2549;52.128;21.068;2023-05-19T03:43:41;15.00;99.90
5061;DHT22;2549;52.128;21.068;2023-05-19T03:46:08;15.00;99.90
5061;DHT22;2549;52.128;21.068;2023-05-19T03:48:35;15.00;99.90
5061;DHT22;2549;52.128;21.068;2023-05-19T03:51:02;15.00;99.90
5061;DHT22;2549;52.128;21.068;2023-05-19T03:53:30;15.00;99.90
5061;DHT22;2549;52.128;21.068;2023-05-19T03:55:57;15.00;99.90
5061;DHT22;2549;52.128;21.068;2023-05-19T03:58:25;15.00;99.90
5061;DHT22;2549;52.128;21.068;2023-05-19T04:00:52;15.00;99.90
5061;DHT22;2549;52.128;21.068;2023-05-19T04:03:19;15.00;99.90
5061;DHT22;2549;52.128;21.068;2023-05-19T04:05:47;14.90;99.90
5061;DHT22;2549;52.128;21.068;2023-05-19T04:08:13;14.90;99.90
5061;DHT22;2549;52.128;21.068;2023-05-19T04:10:40;14.90;99.90
5061;DHT22;2549;52.128;21.068;2023-05-19T04:13:07;14.90;99.90
5061;DHT22;2549;52.128;21.068;2023-05-19T04:15:34;14.90;99.90
5061;DHT22;2549;52.128;21.068;2023-05-19T04:18:01;14.80;99.90
5061;DHT22;2549;52.128;21.068;2023-05-19T04:20:28;14.80;99.90
5061;DHT22;2549;52.128;21.068;2023-05-19T04:22:55;14.80;99.90
5061;DHT22;2549;52.128;21.068;2023-05-19T04:25:22;14.90;99.90
5061;DHT22;2549;52.128;21.068;2023-05-19T04:27:51;14.90;99.90
5061;DHT22;2549;52.128;21.068;2023-05-19T04:30:18;14.90;99.90
5061;DHT22;2549;52.128;21.068;2023-05-19T04:32:48;14.90;99.90
5061;DHT22;2549;52.128;21.068;2023-05-19T04:35:17;14.90;99.90
5061;DHT22;2549;52.128;21.068;2023-05-19T04:37:45;14.90;99.90
5061;DHT22;2549;52.128;21.068;2023-05-19T04:40:12;14.90;99.90
5061;DHT22;2549;52.128;21.068;2023-05-19T04:42:39;14.90;99.90
5061;DHT22;2549;52.128;21.068;2023-05-19T04:45:11;14.90;99.90
5061;DHT22;2549;52.128;21.068;2023-05-19T04:47:40;14.80;99.90
5061;DHT22;2549;52.128;21.068;2023-05-19T04:50:09;14.80;99.90
5061;DHT22;2549;52.128;21.068;2023-05-19T04:52:36;14.80;99.90
5061;DHT22;2549;52.128;21.068;2023-05-19T04:55:04;14.80;99.90
5061;DHT22;2549;52.128;21.068;2023-05-19T04:57:31;14.90;99.90
5061;DHT22;2549;52.128;21.068;2023-05-19T04:59:58;14.90;99.90
5061;DHT22;2549;52.128;21.068;2023-05-19T05:02:27;14.90;99.90
5061;DHT22;2549;52.128;21.068;2023-05-19T05:04:54;14.90;99.90
5061;DHT22;2549;52.128;21.068;2023-05-19T05:07:22;14.90;99.90
5061;DHT22;2549;52.128;21.068;2023-05-19T05:09:49;14.90;99.90
5061;DHT22;2549;52.128;21.068;2023-05-19T05:12:17;14.90;99.90
5061;DHT22;2549;52.128;21.068;2023-05-19T05:14:44;14.90;99.90
5061;DHT22;2549;52.128;21.068;2023-05-19T05:17:11;14.90;99.90
5061;DHT22;2549;52.128;21.068;2023-05-19T05:19:39;14.90;99.90
5061;DHT22;2549;52.128;21.068;2023-05-19T05:22:07;14.90;99.90
5061;DHT22;2549;52.128;21.068;2023-05-19T05:24:34;14.90;99.90
5061;DHT22;2549;52.128;21.068;2023-05-19T05:27:01;14.80;99.90
5061;DHT22;2549;52.128;21.068;2023-05-19T05:29:30;14.90;99.90
5061;DHT22;2549;52.128;21.068;2023-05-19T05:31:57;14.90;99.90
5061;DHT22;2549;52.128;21.068;2023-05-19T05:34:24;14.90;99.90
5061;DHT22;2549;52.128;21.068;2023-05-19T05:36:50;14.90;99.90
5061;DHT22;2549;52.128;21.068;2023-05-19T05:39:17;14.90;99.90
5061;DHT22;2549;52.128;21.068;2023-05-19T05:41:44;14.90;99.90
5061;DHT22;2549;52.128;21.068;2023-05-19T05:44:11;14.90;99.90
5061;DHT22;2549;52.128;21.068;2023-05-19T05:46:38;14.90;99.90
5061;DHT22;2549;52.128;21.068;2023-05-19T05:49:06;15.00;99.90
5061;DHT22;2549;52.128;21.068;2023-05-19T05:51:33;15.00;99.90
5061;DHT22;2549;52.128;21.068;2023-05-19T05:54:01;15.00;99.90
5061;DHT22;2549;52.128;21.068;2023-05-19T05:56:28;15.00;99.90
5061;DHT22;2549;52.128;21.068;2023-05-19T05:58:55;15.00;99.90
5061;DHT22;2549;52.128;21.068;2023-05-19T06:01:22;15.00;99.90
5061;DHT22;2549;52.128;21.068;2023-05-19T06:03:50;15.00;99.90
5061;DHT22;2549;52.128;21.068;2023-05-19T06:06:17;15.00;99.90
5061;DHT22;2549;52.128;21.068;2023-05-19T06:08:43;15.00;99.90
5061;DHT22;2549;52.128;21.068;2023-05-19T06:11:10;15.00;99.90
5061;DHT22;2549;52.128;21.068;2023-05-19T06:13:38;15.00;99.90
5061;DHT22;2549;52.128;21.068;2023-05-19T06:16:07;15.00;99.90
5061;DHT22;2549;52.128;21.068;2023-05-19T06:18:34;15.00;99.90
5061;DHT22;2549;52.128;21.068;2023-05-19T06:21:01;15.10;99.90
5061;DHT22;2549;52.128;21.068;2023-05-19T06:23:32;15.00;99.90
5061;DHT22;2549;52.128;21.068;2023-05-19T06:25:59;15.00;99.90
5061;DHT22;2549;52.128;21.068;2023-05-19T06:28:25;15.00;99.90
5061;DHT22;2549;52.128;21.068;2023-05-19T06:30:52;15.00;99.90
5061;DHT22;2549;52.128;21.068;2023-05-19T06:33:19;15.10;99.90
5061;DHT22;2549;52.128;21.068;2023-05-19T06:35:46;15.00;99.90
5061;DHT22;2549;52.128;21.068;2023-05-19T06:38:13;15.00;99.90
5061;DHT22;2549;52.128;21.068;2023-05-19T06:40:40;15.00;99.90
5061;DHT22;2549;52.128;21.068;2023-05-19T06:43:07;15.10;99.90
5061;DHT22;2549;52.128;21.068;2023-05-19T06:45:34;15.10;99.90
5061;DHT22;2549;52.128;21.068;2023-05-19T06:48:02;15.10;99.90
5061;DHT22;2549;52.128;21.068;2023-05-19T06:50:29;15.10;99.90
5061;DHT22;2549;52.128;21.068;2023-05-19T06:52:56;15.10;99.90
5061;DHT22;2549;52.128;21.068;2023-05-19T06:55:24;15.10;99.90
5061;DHT22;2549;52.128;21.068;2023-05-19T06:57:51;15.10;99.90
5061;DHT22;2549;52.128;21.068;2023-05-19T07:00:17;15.10;99.90
5061;DHT22;2549;52.128;21.068;2023-05-19T07:02:48;15.20;99.90
5061;DHT22;2549;52.128;21.068;2023-05-19T07:05:15;15.20;99.90
5061;DHT22;2549;52.128;21.068;2023-05-19T07:07:42;15.20;99.90
5061;DHT22;2549;52.128;21.068;2023-05-19T07:10:10;15.20;99.90
5061;DHT22;2549;52.128;21.068;2023-05-19T07:12:37;15.20;99.90
5061;DHT22;2549;52.128;21.068;2023-05-19T07:15:04;15.20;99.90
5061;DHT22;2549;52.128;21.068;2023-05-19T07:17:31;15.30;99.90
5061;DHT22;2549;52.128;21.068;2023-05-19T07:19:58;15.30;99.90
5061;DHT22;2549;52.128;21.068;2023-05-19T07:22:24;15.40;99.90
5061;DHT22;2549;52.128;21.068;2023-05-19T07:24:51;15.40;99.90
5061;DHT22;2549;52.128;21.068;2023-05-19T07:27:18;15.30;99.90
5061;DHT22;2549;52.128;21.068;2023-05-19T07:29:45;15.30;99.90
5061;DHT22;2549;52.128;21.068;2023-05-19T07:32:12;15.40;99.90
5061;DHT22;2549;52.128;21.068;2023-05-19T07:34:39;15.30;99.90
5061;DHT22;2549;52.128;21.068;2023-05-19T07:37:06;15.30;99.90
5061;DHT22;2549;52.128;21.068;2023-05-19T07:39:34;15.40;99.90
5061;DHT22;2549;52.128;21.068;2023-05-19T07:42:01;15.30;99.90
5061;DHT22;2549;52.128;21.068;2023-05-19T07:44:28;15.30;99.90
5061;DHT22;2549;52.128;21.068;2023-05-19T07:46:57;15.30;99.90
5061;DHT22;2549;52.128;21.068;2023-05-19T07:49:24;15.40;99.90
5061;DHT22;2549;52.128;21.068;2023-05-19T07:51:51;15.40;99.90
5061;DHT22;2549;52.128;21.068;2023-05-19T07:54:18;15.40;99.90
5061;DHT22;2549;52.128;21.068;2023-05-19T07:56:45;15.40;99.90
5061;DHT22;2549;52.128;21.068;2023-05-19T07:59:14;15.40;99.90
5061;DHT22;2549;52.128;21.068;2023-05-19T08:01:41;15.40;99.90
5061;DHT22;2549;52.128;21.068;2023-05-19T08:04:09;15.50;99.90
5061;DHT22;2549;52.128;21.068;2023-05-19T08:06:38;15.50;99.90
5061;DHT22;2549;52.128;21.068;2023-05-19T08:09:08;15.60;99.90
5061;DHT22;2549;52.128;21.068;2023-05-19T08:11:35;15.60;99.90
5061;DHT22;2549;52.128;21.068;2023-05-19T08:14:02;15.60;99.90
5061;DHT22;2549;52.128;21.068;2023-05-19T08:16:30;15.60;99.90
5061;DHT22;2549;52.128;21.068;2023-05-19T08:18:57;15.60;99.90
5061;DHT22;2549;52.128;21.068;2023-05-19T08:21:26;15.50;99.90
5061;DHT22;2549;52.128;21.068;2023-05-19T08:23:53;15.60;99.90
5061;DHT22;2549;52.128;21.068;2023-05-19T08:26:20;15.60;99.90
5061;DHT22;2549;52.128;21.068;2023-05-19T08:28:47;15.60;99.90
5061;DHT22;2549;52.128;21.068;2023-05-19T08:31:14;15.70;99.90
5061;DHT22;2549;52.128;21.068;2023-05-19T08:33:41;15.70;99.90
5061;DHT22;2549;52.128;21.068;2023-05-19T08:36:08;15.70;99.90
5061;DHT22;2549;52.128;21.068;2023-05-19T08:38:34;15.70;99.90
5061;DHT22;2549;52.128;21.068;2023-05-19T08:41:02;15.80;99.90
5061;DHT22;2549;52.128;21.068;2023-05-19T08:43:29;15.80;99.90
5061;DHT22;2549;52.128;21.068;2023-05-19T08:45:57;15.80;99.90
5061;DHT22;2549;52.128;21.068;2023-05-19T08:48:28;15.80;99.90
5061;DHT22;2549;52.128;21.068;2023-05-19T08:51:19;15.80;99.90
5061;DHT22;2549;52.128;21.068;2023-05-19T08:53:50;15.80;99.90
5061;DHT22;2549;52.128;21.068;2023-05-19T08:56:21;15.90;99.90
5061;DHT22;2549;52.128;21.068;2023-05-19T08:58:49;15.90;99.90
5061;DHT22;2549;52.128;21.068;2023-05-19T09:01:18;15.90;99.90
5061;DHT22;2549;52.128;21.068;2023-05-19T09:03:46;15.90;99.90
5061;DHT22;2549;52.128;21.068;2023-05-19T09:06:15;16.00;99.90
5061;DHT22;2549;52.128;21.068;2023-05-19T09:08:43;16.00;99.90
5061;DHT22;2549;52.128;21.068;2023-05-19T09:11:10;16.00;99.90
5061;DHT22;2549;52.128;21.068;2023-05-19T09:13:37;16.00;99.90
5061;DHT22;2549;52.128;21.068;2023-05-19T09:16:05;16.00;99.90
5061;DHT22;2549;52.128;21.068;2023-05-19T09:18:32;16.00;99.90
5061;DHT22;2549;52.128;21.068;2023-05-19T09:21:00;16.00;99.90
5061;DHT22;2549;52.128;21.068;2023-05-19T09:23:30;16.10;99.90
5061;DHT22;2549;52.128;21.068;2023-05-19T09:26:03;16.10;99.90
5061;DHT22;2549;52.128;21.068;2023-05-19T09:28:35;16.10;99.90
5061;DHT22;2549;52.128;21.068;2023-05-19T09:33:34;16.10;99.90
5061;DHT22;2549;52.128;21.068;2023-05-19T09:36:02;16.20;99.90
5061;DHT22;2549;52.128;21.068;2023-05-19T09:38:31;16.20;99.90
5061;DHT22;2549;52.128;21.068;2023-05-19T09:40:59;16.20;99.90
5061;DHT22;2549;52.128;21.068;2023-05-19T09:43:27;16.20;99.90
5061;DHT22;2549;52.128;21.068;2023-05-19T09:45:59;16.20;99.90
5061;DHT22;2549;52.128;21.068;2023-05-19T09:48:34;16.20;99.90
5061;DHT22;2549;52.128;21.068;2023-05-19T09:51:04;16.30;99.90
5061;DHT22;2549;52.128;21.068;2023-05-19T09:53:33;16.30;99.90
5061;DHT22;2549;52.128;21.068;2023-05-19T09:56:01;16.30;99.90
5061;DHT22;2549;52.128;21.068;2023-05-19T09:58:32;16.30;99.90
5061;DHT22;2549;52.128;21.068;2023-05-19T10:01:03;16.40;99.90
5061;DHT22;2549;52.128;21.068;2023-05-19T10:03:31;16.40;99.90
5061;DHT22;2549;52.128;21.068;2023-05-19T10:06:00;16.40;99.90
5061;DHT22;2549;52.128;21.068;2023-05-19T10:08:28;16.40;99.90
5061;DHT22;2549;52.128;21.068;2023-05-19T10:10:56;16.40;99.90
5061;DHT22;2549;52.128;21.068;2023-05-19T10:13:24;16.40;99.90
5061;DHT22;2549;52.128;21.068;2023-05-19T10:15:53;16.50;99.90
5061;DHT22;2549;52.128;21.068;2023-05-19T10:18:25;16.50;99.90
5061;DHT22;2549;52.128;21.068;2023-05-19T10:20:53;16.50;99.90
5061;DHT22;2549;52.128;21.068;2023-05-19T10:23:20;16.50;99.90
5061;DHT22;2549;52.128;21.068;2023-05-19T10:25:49;16.60;99.90
5061;DHT22;2549;52.128;21.068;2023-05-19T10:28:17;16.60;99.90
5061;DHT22;2549;52.128;21.068;2023-05-19T10:30:48;16.70;99.90
5061;DHT22;2549;52.128;21.068;2023-05-19T10:33:17;16.70;99.90
5061;DHT22;2549;52.128;21.068;2023-05-19T10:38:50;16.80;99.90
5061;DHT22;2549;52.128;21.068;2023-05-19T10:46:58;16.90;99.90
5061;DHT22;2549;52.128;21.068;2023-05-19T10:49:25;16.90;99.90
5061;DHT22;2549;52.128;21.068;2023-05-19T10:51:54;16.90;99.90
5061;DHT22;2549;52.128;21.068;2023-05-19T10:54:40;16.90;99.90
5061;DHT22;2549;52.128;21.068;2023-05-19T10:57:13;17.00;99.90
5061;DHT22;2549;52.128;21.068;2023-05-19T10:59:41;17.00;99.90
5061;DHT22;2549;52.128;21.068;2023-05-19T11:02:39;17.00;99.90
5061;DHT22;2549;52.128;21.068;2023-05-19T11:05:14;17.10;99.90
5061;DHT22;2549;52.128;21.068;2023-05-19T11:07:54;17.20;99.90
5061;DHT22;2549;52.128;21.068;2023-05-19T11:10:23;17.10;99.90
5061;DHT22;2549;52.128;21.068;2023-05-19T11:12:51;17.10;99.90
5061;DHT22;2549;52.128;21.068;2023-05-19T11:15:18;17.10;99.90
5061;DHT22;2549;52.128;21.068;2023-05-19T11:17:49;17.00;99.90
5061;DHT22;2549;52.128;21.068;2023-05-19T11:20:27;17.10;99.90
5061;DHT22;2549;52.128;21.068;2023-05-19T11:23:08;17.10;99.90
5061;DHT22;2549;52.128;21.068;2023-05-19T11:25:49;17.20;99.90
5061;DHT22;2549;52.128;21.068;2023-05-19T11:28:18;17.20;99.90
5061;DHT22;2549;52.128;21.068;2023-05-19T11:30:47;17.30;99.90
5061;DHT22;2549;52.128;21.068;2023-05-19T11:33:19;17.30;99.90
5061;DHT22;2549;52.128;21.068;2023-05-19T11:35:47;17.30;99.90
5061;DHT22;2549;52.128;21.068;2023-05-19T11:38:19;17.30;99.90
5061;DHT22;2549;52.128;21.068;2023-05-19T11:40:48;17.30;99.90
5061;DHT22;2549;52.128;21.068;2023-05-19T11:43:15;17.40;99.90
5061;DHT22;2549;52.128;21.068;2023-05-19T11:45:42;17.40;99.90
5061;DHT22;2549;52.128;21.068;2023-05-19T11:48:13;17.40;99.90
5061;DHT22;2549;52.128;21.068;2023-05-19T11:50:41;17.40;99.90
5061;DHT22;2549;52.128;21.068;2023-05-19T11:53:13;17.40;99.90
5061;DHT22;2549;52.128;21.068;2023-05-19T11:55:47;17.40;99.90
5061;DHT22;2549;52.128;21.068;2023-05-19T11:58:15;17.50;99.90
5061;DHT22;2549;52.128;21.068;2023-05-19T12:00:43;17.50;99.90
5061;DHT22;2549;52.128;21.068;2023-05-19T12:03:13;17.50;99.90
5061;DHT22;2549;52.128;21.068;2023-05-19T12:05:44;17.50;99.90
5061;DHT22;2549;52.128;21.068;2023-05-19T12:08:16;17.50;99.90
5061;DHT22;2549;52.128;21.068;2023-05-19T12:10:47;17.60;99.90
5061;DHT22;2549;52.128;21.068;2023-05-19T12:13:16;17.60;99.90
5061;DHT22;2549;52.128;21.068;2023-05-19T12:15:43;17.60;99.90
5061;DHT22;2549;52.128;21.068;2023-05-19T12:18:10;17.60;99.90
5061;DHT22;2549;52.128;21.068;2023-05-19T12:20:37;17.70;99.90
5061;DHT22;2549;52.128;21.068;2023-05-19T12:23:04;17.70;99.90
5061;DHT22;2549;52.128;21.068;2023-05-19T12:25:31;17.70;99.90
5061;DHT22;2549;52.128;21.068;2023-05-19T12:27:59;17.70;99.90
5061;DHT22;2549;52.128;21.068;2023-05-19T12:30:29;17.70;99.90
5061;DHT22;2549;52.128;21.068;2023-05-19T12:32:58;17.70;99.90
5061;DHT22;2549;52.128;21.068;2023-05-19T12:35:30;17.70;99.90
5061;DHT22;2549;52.128;21.068;2023-05-19T12:38:05;17.70;99.90
5061;DHT22;2549;52.128;21.068;2023-05-19T12:40:33;17.70;99.90
5061;DHT22;2549;52.128;21.068;2023-05-19T12:43:02;17.70;99.90
5061;DHT22;2549;52.128;21.068;2023-05-19T12:45:35;17.70;99.90
5061;DHT22;2549;52.128;21.068;2023-05-19T12:48:10;17.80;99.90
5061;DHT22;2549;52.128;21.068;2023-05-19T12:50:38;17.80;99.90
5061;DHT22;2549;52.128;21.068;2023-05-19T12:53:07;17.70;99.90
5061;DHT22;2549;52.128;21.068;2023-05-19T12:55:39;17.80;99.90
5061;DHT22;2549;52.128;21.068;2023-05-19T12:58:08;17.70;99.90
5061;DHT22;2549;52.128;21.068;2023-05-19T13:00:41;17.70;99.90
5061;DHT22;2549;52.128;21.068;2023-05-19T13:03:17;17.70;99.90
5061;DHT22;2549;52.128;21.068;2023-05-19T13:05:46;17.80;99.90
5061;DHT22;2549;52.128;21.068;2023-05-19T13:08:18;17.80;99.90
5061;DHT22;2549;52.128;21.068;2023-05-19T13:10:46;17.80;99.90
5061;DHT22;2549;52.128;21.068;2023-05-19T13:13:15;17.80;99.90
5061;DHT22;2549;52.128;21.068;2023-05-19T13:15:44;17.80;99.90
5061;DHT22;2549;52.128;21.068;2023-05-19T13:18:12;17.80;99.90
5061;DHT22;2549;52.128;21.068;2023-05-19T13:20:41;17.80;99.90
5061;DHT22;2549;52.128;21.068;2023-05-19T13:23:12;17.80;99.90
5061;DHT22;2549;52.128;21.068;2023-05-19T13:25:40;17.80;99.90
5061;DHT22;2549;52.128;21.068;2023-05-19T13:28:07;17.80;99.90
5061;DHT22;2549;52.128;21.068;2023-05-19T13:30:35;17.80;99.90
5061;DHT22;2549;52.128;21.068;2023-05-19T13:33:04;17.80;99.90
5061;DHT22;2549;52.128;21.068;2023-05-19T13:35:31;17.80;99.90
5061;DHT22;2549;52.128;21.068;2023-05-19T13:38:07;17.90;99.90
5061;DHT22;2549;52.128;21.068;2023-05-19T13:40:37;17.90;99.90
5061;DHT22;2549;52.128;21.068;2023-05-19T13:43:05;17.90;99.90
5061;DHT22;2549;52.128;21.068;2023-05-19T13:45:33;17.80;99.90
5061;DHT22;2549;52.128;21.068;2023-05-19T13:48:00;17.90;99.90
5061;DHT22;2549;52.128;21.068;2023-05-19T13:50:27;17.90;99.90
5061;DHT22;2549;52.128;21.068;2023-05-19T13:52:54;17.90;99.90
5061;DHT22;2549;52.128;21.068;2023-05-19T13:55:21;17.90;99.90
5061;DHT22;2549;52.128;21.068;2023-05-19T13:57:49;17.90;99.90
5061;DHT22;2549;52.128;21.068;2023-05-19T14:00:17;17.90;99.90
5061;DHT22;2549;52.128;21.068;2023-05-19T14:02:44;18.00;99.90
5061;DHT22;2549;52.128;21.068;2023-05-19T14:05:12;18.00;99.90
5061;DHT22;2549;52.128;21.068;2023-05-19T14:07:39;18.00;99.90
5061;DHT22;2549;52.128;21.068;2023-05-19T14:10:06;17.90;99.90
5061;DHT22;2549;52.128;21.068;2023-05-19T14:12:34;18.00;99.90
5061;DHT22;2549;52.128;21.068;2023-05-19T14:15:21;18.00;99.90
5061;DHT22;2549;52.128;21.068;2023-05-19T14:17:49;18.00;99.90
5061;DHT22;2549;52.128;21.068;2023-05-19T14:20:16;17.90;99.90
5061;DHT22;2549;52.128;21.068;2023-05-19T14:22:43;17.90;99.90
5061;DHT22;2549;52.128;21.068;2023-05-19T14:25:10;17.90;99.90
5061;DHT22;2549;52.128;21.068;2023-05-19T14:27:37;18.00;99.90
5061;DHT22;2549;52.128;21.068;2023-05-19T14:30:06;17.90;99.90
5061;DHT22;2549;52.128;21.068;2023-05-19T14:32:33;17.90;99.90
5061;DHT22;2549;52.128;21.068;2023-05-19T14:35:01;17.90;99.90
5061;DHT22;2549;52.128;21.068;2023-05-19T14:37:29;17.90;99.90
5061;DHT22;2549;52.128;21.068;2023-05-19T14:39:58;17.90;99.90
5061;DHT22;2549;52.128;21.068;2023-05-19T14:42:25;17.90;99.90
5061;DHT22;2549;52.128;21.068;2023-05-19T14:44:52;17.90;99.90
5061;DHT22;2549;52.128;21.068;2023-05-19T14:47:19;17.90;99.90
5061;DHT22;2549;52.128;21.068;2023-05-19T14:49:46;17.90;99.90
5061;DHT22;2549;52.128;21.068;2023-05-19T14:52:13;17.90;99.90
5061;DHT22;2549;52.128;21.068;2023-05-19T14:54:41;17.90;99.90
5061;DHT22;2549;52.128;21.068;2023-05-19T14:57:08;17.90;99.90
5061;DHT22;2549;52.128;21.068;2023-05-19T14:59:38;17.80;99.90
5061;DHT22;2549;52.128;21.068;2023-05-19T15:02:06;17.90;99.90
5061;DHT22;2549;52.128;21.068;2023-05-19T15:04:33;17.90;99.90
5061;DHT22;2549;52.128;21.068;2023-05-19T15:06:59;17.90;99.90
5061;DHT22;2549;52.128;21.068;2023-05-19T15:09:29;17.90;99.90
5061;DHT22;2549;52.128;21.068;2023-05-19T15:11:57;17.90;99.90
5061;DHT22;2549;52.128;21.068;2023-05-19T15:14:26;18.00;99.90
5061;DHT22;2549;52.128;21.068;2023-05-19T15:16:56;18.00;99.90
5061;DHT22;2549;52.128;21.068;2023-05-19T15:19:23;18.10;99.90
5061;DHT22;2549;52.128;21.068;2023-05-19T15:21:50;18.00;99.90
5061;DHT22;2549;52.128;21.068;2023-05-19T15:24:17;18.00;99.90
5061;DHT22;2549;52.128;21.068;2023-05-19T15:26:44;18.00;99.90
5061;DHT22;2549;52.128;21.068;2023-05-19T15:29:12;18.00;99.90
5061;DHT22;2549;52.128;21.068;2023-05-19T15:31:39;18.00;99.90
5061;DHT22;2549;52.128;21.068;2023-05-19T15:34:07;18.00;99.90
5061;DHT22;2549;52.128;21.068;2023-05-19T15:36:34;18.10;99.90
5061;DHT22;2549;52.128;21.068;2023-05-19T15:39:01;18.00;99.90
5061;DHT22;2549;52.128;21.068;2023-05-19T15:41:33;18.00;99.90
5061;DHT22;2549;52.128;21.068;2023-05-19T15:44:00;17.90;99.90
5061;DHT22;2549;52.128;21.068;2023-05-19T15:46:28;18.00;99.90
5061;DHT22;2549;52.128;21.068;2023-05-19T15:48:55;18.00;99.90
5061;DHT22;2549;52.128;21.068;2023-05-19T15:51:22;18.00;99.90
5061;DHT22;2549;52.128;21.068;2023-05-19T15:53:49;18.00;99.90
5061;DHT22;2549;52.128;21.068;2023-05-19T15:56:16;18.00;99.90
5061;DHT22;2549;52.128;21.068;2023-05-19T15:58:44;18.00;99.90
5061;DHT22;2549;52.128;21.068;2023-05-19T16:01:12;18.00;99.90
5061;DHT22;2549;52.128;21.068;2023-05-19T16:03:39;18.00;99.90
5061;DHT22;2549;52.128;21.068;2023-05-19T16:06:06;18.00;99.90
5061;DHT22;2549;52.128;21.068;2023-05-19T16:08:33;18.00;99.90
5061;DHT22;2549;52.128;21.068;2023-05-19T16:11:00;18.00;99.90
5061;DHT22;2549;52.128;21.068;2023-05-19T16:13:27;18.00;99.90
5061;DHT22;2549;52.128;21.068;2023-05-19T16:15:56;18.00;99.90
5061;DHT22;2549;52.128;21.068;2023-05-19T16:18:22;18.00;99.90
5061;DHT22;2549;52.128;21.068;2023-05-19T16:20:50;18.10;99.90